sensor_id;sensor_type;location;lat;lon;timestamp;P1;durP1;ratioP1;P2;durP2;ratioP2
16662;SDS011;8445;51.270;9.434;2022-08-01T00:01:40;6.22;;;5.03;;
16662;SDS011;8445;51.270;9.434;2022-08-01T00:04:05;8.98;;;5.78;;
16662;SDS011;8445;51.270;9.434;2022-08-01T00:06:31;6.85;;;5.82;;
16662;SDS011;8445;51.270;9.434;2022-08-01T00:08:57;7.38;;;5.32;;
16662;SDS011;8445;51.270;9.434;2022-08-01T00:11:23;6.43;;;5.80;;
16662;SDS011;8445;51.270;9.434;2022-08-01T00:13:49;8.15;;;5.68;;
16662;SDS011;8445;51.270;9.434;2022-08-01T00:16:15;6.90;;;5.28;;
16662;SDS011;8445;51.270;9.434;2022-08-01T00:18:41;6.25;;;5.22;;
16662;SDS011;8445;51.270;9.434;2022-08-01T00:21:07;6.50;;;5.40;;
16662;SDS011;8445;51.270;9.434;2022-08-01T00:23:33;6.25;;;5.03;;
16662;SDS011;8445;51.270;9.434;2022-08-01T00:26:01;5.57;;;4.93;;
16662;SDS011;8445;51.270;9.434;2022-08-01T00:28:27;4.85;;;4.40;;
16662;SDS011;8445;51.270;9.434;2022-08-01T00:30:55;8.10;;;5.50;;
16662;SDS011;8445;51.270;9.434;2022-08-01T00:33:21;8.43;;;5.53;;
16662;SDS011;8445;51.270;9.434;2022-08-01T00:35:47;7.68;;;5.22;;
16662;SDS011;8445;51.270;9.434;2022-08-01T00:38:13;7.03;;;5.45;;
16662;SDS011;8445;51.270;9.434;2022-08-01T00:40:39;8.57;;;5.45;;
16662;SDS011;8445;51.270;9.434;2022-08-01T00:43:05;4.90;;;4.45;;
16662;SDS011;8445;51.270;9.434;2022-08-01T00:45:30;6.97;;;5.07;;
16662;SDS011;8445;51.270;9.434;2022-08-01T00:47:56;5.68;;;5.07;;
16662;SDS011;8445;51.270;9.434;2022-08-01T00:50:22;6.55;;;5.32;;
16662;SDS011;8445;51.270;9.434;2022-08-01T00:52:51;7.93;;;5.70;;
16662;SDS011;8445;51.270;9.434;2022-08-01T00:55:18;5.68;;;5.03;;
16662;SDS011;8445;51.270;9.434;2022-08-01T00:57:45;5.28;;;4.78;;
16662;SDS011;8445;51.270;9.434;2022-08-01T01:00:13;5.38;;;4.88;;
16662;SDS011;8445;51.270;9.434;2022-08-01T01:02:39;6.53;;;5.13;;
16662;SDS011;8445;51.270;9.434;2022-08-01T01:05:05;8.43;;;5.05;;
16662;SDS011;8445;51.270;9.434;2022-08-01T01:07:35;6.50;;;5.10;;
16662;SDS011;8445;51.270;9.434;2022-08-01T01:10:25;5.28;;;4.82;;
16662;SDS011;8445;51.270;9.434;2022-08-01T01:15:43;7.10;;;5.75;;
16662;SDS011;8445;51.270;9.434;2022-08-01T01:27:20;9.85;;;6.88;;
16662;SDS011;8445;51.270;9.434;2022-08-01T01:30:04;9.88;;;6.95;;
16662;SDS011;8445;51.270;9.434;2022-08-01T01:35:04;15.13;;;9.35;;
16662;SDS011;8445;51.270;9.434;2022-08-01T01:37:38;10.93;;;7.47;;
16662;SDS011;8445;51.270;9.434;2022-08-01T01:40:06;11.98;;;6.82;;
16662;SDS011;8445;51.270;9.434;2022-08-01T01:42:36;8.57;;;7.38;;
16662;SDS011;8445;51.270;9.434;2022-08-01T01:45:05;9.43;;;6.82;;
16662;SDS011;8445;51.270;9.434;2022-08-01T01:47:33;10.73;;;7.00;;
16662;SDS011;8445;51.270;9.434;2022-08-01T01:50:03;7.00;;;6.40;;
16662;SDS011;8445;51.270;9.434;2022-08-01T01:52:33;9.02;;;6.93;;
16662;SDS011;8445;51.270;9.434;2022-08-01T01:55:04;9.70;;;7.57;;
16662;SDS011;8445;51.270;9.434;2022-08-01T01:57:36;8.35;;;7.65;;
16662;SDS011;8445;51.270;9.434;2022-08-01T02:00:06;10.93;;;7.00;;
16662;SDS011;8445;51.270;9.434;2022-08-01T02:02:36;8.55;;;6.95;;
16662;SDS011;8445;51.270;9.434;2022-08-01T02:05:05;11.02;;;7.55;;
16662;SDS011;8445;51.270;9.434;2022-08-01T02:07:35;12.00;;;7.88;;
16662;SDS011;8445;51.270;9.434;2022-08-01T02:10:02;10.57;;;8.07;;
16662;SDS011;8445;51.270;9.434;2022-08-01T02:12:32;11.48;;;8.52;;
16662;SDS011;8445;51.270;9.434;2022-08-01T02:15:02;14.48;;;8.07;;
16662;SDS011;8445;51.270;9.434;2022-08-01T02:17:30;11.65;;;8.63;;
16662;SDS011;8445;51.270;9.434;2022-08-01T02:19:57;12.82;;;8.70;;
16662;SDS011;8445;51.270;9.434;2022-08-01T02:22:28;12.48;;;9.32;;
16662;SDS011;8445;51.270;9.434;2022-08-01T02:27:40;13.55;;;8.85;;
16662;SDS011;8445;51.270;9.434;2022-08-01T02:30:16;13.90;;;9.07;;
16662;SDS011;8445;51.270;9.434;2022-08-01T02:32:44;11.10;;;9.52;;
16662;SDS011;8445;51.270;9.434;2022-08-01T02:35:29;14.23;;;9.85;;
16662;SDS011;8445;51.270;9.434;2022-08-01T02:38:00;12.85;;;9.95;;
16662;SDS011;8445;51.270;9.434;2022-08-01T02:40:31;12.07;;;9.20;;
16662;SDS011;8445;51.270;9.434;2022-08-01T02:43:00;11.27;;;9.07;;
16662;SDS011;8445;51.270;9.434;2022-08-01T02:45:30;13.25;;;9.77;;
16662;SDS011;8445;51.270;9.434;2022-08-01T02:48:08;13.32;;;8.93;;
16662;SDS011;8445;51.270;9.434;2022-08-01T02:50:38;11.65;;;8.95;;
16662;SDS011;8445;51.270;9.434;2022-08-01T02:53:10;12.60;;;9.30;;
16662;SDS011;8445;51.270;9.434;2022-08-01T02:55:41;10.20;;;9.13;;
16662;SDS011;8445;51.270;9.434;2022-08-01T02:58:12;10.25;;;9.02;;
16662;SDS011;8445;51.270;9.434;2022-08-01T03:00:43;13.43;;;8.77;;
16662;SDS011;8445;51.270;9.434;2022-08-01T03:03:11;14.02;;;9.70;;
16662;SDS011;8445;51.270;9.434;2022-08-01T03:05:39;15.25;;;9.73;;
16662;SDS011;8445;51.270;9.434;2022-08-01T03:08:07;12.80;;;9.88;;
16662;SDS011;8445;51.270;9.434;2022-08-01T03:10:38;10.30;;;9.15;;
16662;SDS011;8445;51.270;9.434;2022-08-01T03:13:08;11.23;;;9.52;;
16662;SDS011;8445;51.270;9.434;2022-08-01T03:15:39;11.98;;;8.93;;
16662;SDS011;8445;51.270;9.434;2022-08-01T03:18:09;12.10;;;9.35;;
16662;SDS011;8445;51.270;9.434;2022-08-01T03:20:37;14.48;;;9.50;;
16662;SDS011;8445;51.270;9.434;2022-08-01T03:23:07;12.70;;;9.18;;
16662;SDS011;8445;51.270;9.434;2022-08-01T03:25:38;10.10;;;8.80;;
16662;SDS011;8445;51.270;9.434;2022-08-01T03:28:08;16.17;;;8.48;;
16662;SDS011;8445;51.270;9.434;2022-08-01T03:30:38;11.65;;;8.75;;
16662;SDS011;8445;51.270;9.434;2022-08-01T03:33:05;14.38;;;9.80;;
16662;SDS011;8445;51.270;9.434;2022-08-01T03:35:42;13.52;;;8.95;;
16662;SDS011;8445;51.270;9.434;2022-08-01T03:38:16;10.13;;;8.43;;
16662;SDS011;8445;51.270;9.434;2022-08-01T03:40:49;13.80;;;8.52;;
16662;SDS011;8445;51.270;9.434;2022-08-01T03:43:38;13.80;;;8.80;;
16662;SDS011;8445;51.270;9.434;2022-08-01T03:46:13;13.65;;;8.90;;
16662;SDS011;8445;51.270;9.434;2022-08-01T03:48:47;12.90;;;8.77;;
16662;SDS011;8445;51.270;9.434;2022-08-01T03:51:20;9.95;;;8.38;;
16662;SDS011;8445;51.270;9.434;2022-08-01T03:53:48;12.80;;;8.50;;
16662;SDS011;8445;51.270;9.434;2022-08-01T03:56:19;15.20;;;8.38;;
16662;SDS011;8445;51.270;9.434;2022-08-01T03:58:49;10.90;;;9.13;;
16662;SDS011;8445;51.270;9.434;2022-08-01T04:01:16;17.42;;;8.30;;
16662;SDS011;8445;51.270;9.434;2022-08-01T04:03:44;10.57;;;8.25;;
16662;SDS011;8445;51.270;9.434;2022-08-01T04:06:10;15.57;;;9.18;;
16662;SDS011;8445;51.270;9.434;2022-08-01T04:08:39;12.65;;;8.20;;
16662;SDS011;8445;51.270;9.434;2022-08-01T04:11:07;9.57;;;8.27;;
16662;SDS011;8445;51.270;9.434;2022-08-01T04:13:34;12.73;;;9.27;;
16662;SDS011;8445;51.270;9.434;2022-08-01T04:16:01;11.77;;;8.70;;
16662;SDS011;8445;51.270;9.434;2022-08-01T04:18:26;11.43;;;9.27;;
16662;SDS011;8445;51.270;9.434;2022-08-01T04:20:52;9.88;;;8.75;;
16662;SDS011;8445;51.270;9.434;2022-08-01T04:23:19;13.60;;;10.05;;
16662;SDS011;8445;51.270;9.434;2022-08-01T04:25:51;16.25;;;10.05;;
16662;SDS011;8445;51.270;9.434;2022-08-01T04:28:19;11.88;;;9.50;;
16662;SDS011;8445;51.270;9.434;2022-08-01T04:30:47;15.75;;;10.15;;
16662;SDS011;8445;51.270;9.434;2022-08-01T04:33:18;17.92;;;9.43;;
16662;SDS011;8445;51.270;9.434;2022-08-01T04:35:46;13.32;;;9.93;;
16662;SDS011;8445;51.270;9.434;2022-08-01T04:38:19;15.30;;;11.07;;
16662;SDS011;8445;51.270;9.434;2022-08-01T04:40:52;12.15;;;9.13;;
16662;SDS011;8445;51.270;9.434;2022-08-01T04:43:19;13.60;;;10.30;;
16662;SDS011;8445;51.270;9.434;2022-08-01T04:45:46;14.88;;;10.13;;
16662;SDS011;8445;51.270;9.434;2022-08-01T04:48:15;14.20;;;9.60;;
16662;SDS011;8445;51.270;9.434;2022-08-01T04:50:44;10.70;;;9.02;;
16662;SDS011;8445;51.270;9.434;2022-08-01T04:53:14;12.32;;;7.82;;
16662;SDS011;8445;51.270;9.434;2022-08-01T04:55:43;9.88;;;7.07;;
16662;SDS011;8445;51.270;9.434;2022-08-01T04:58:11;7.47;;;4.80;;
16662;SDS011;8445;51.270;9.434;2022-08-01T05:00:37;9.70;;;4.63;;
16662;SDS011;8445;51.270;9.434;2022-08-01T05:03:03;6.95;;;5.65;;
16662;SDS011;8445;51.270;9.434;2022-08-01T05:05:29;7.40;;;5.70;;
16662;SDS011;8445;51.270;9.434;2022-08-01T05:08:01;11.05;;;5.97;;
16662;SDS011;8445;51.270;9.434;2022-08-01T05:10:27;6.57;;;5.63;;
16662;SDS011;8445;51.270;9.434;2022-08-01T05:12:53;11.82;;;6.32;;
16662;SDS011;8445;51.270;9.434;2022-08-01T05:15:19;5.57;;;4.10;;
16662;SDS011;8445;51.270;9.434;2022-08-01T05:17:46;4.05;;;3.65;;
16662;SDS011;8445;51.270;9.434;2022-08-01T05:20:12;3.95;;;3.50;;
16662;SDS011;8445;51.270;9.434;2022-08-01T05:22:38;3.45;;;2.67;;
16662;SDS011;8445;51.270;9.434;2022-08-01T05:25:04;4.20;;;3.78;;
16662;SDS011;8445;51.270;9.434;2022-08-01T05:27:33;3.38;;;3.08;;
16662;SDS011;8445;51.270;9.434;2022-08-01T05:30:05;3.30;;;3.08;;
16662;SDS011;8445;51.270;9.434;2022-08-01T05:32:35;3.92;;;3.05;;
16662;SDS011;8445;51.270;9.434;2022-08-01T05:35:02;6.13;;;2.88;;
16662;SDS011;8445;51.270;9.434;2022-08-01T05:37:28;3.47;;;3.13;;
16662;SDS011;8445;51.270;9.434;2022-08-01T05:39:54;3.42;;;2.88;;
16662;SDS011;8445;51.270;9.434;2022-08-01T05:42:20;3.28;;;2.85;;
16662;SDS011;8445;51.270;9.434;2022-08-01T05:44:45;2.90;;;2.60;;
16662;SDS011;8445;51.270;9.434;2022-08-01T05:47:12;4.72;;;2.70;;
16662;SDS011;8445;51.270;9.434;2022-08-01T05:49:38;4.75;;;3.15;;
16662;SDS011;8445;51.270;9.434;2022-08-01T05:52:04;3.20;;;2.60;;
16662;SDS011;8445;51.270;9.434;2022-08-01T05:54:30;3.92;;;2.67;;
16662;SDS011;8445;51.270;9.434;2022-08-01T05:56:56;3.03;;;2.83;;
16662;SDS011;8445;51.270;9.434;2022-08-01T05:59:26;4.57;;;2.75;;
16662;SDS011;8445;51.270;9.434;2022-08-01T06:01:53;6.07;;;2.85;;
16662;SDS011;8445;51.270;9.434;2022-08-01T06:04:21;6.15;;;3.17;;
16662;SDS011;8445;51.270;9.434;2022-08-01T06:06:48;7.00;;;3.10;;
16662;SDS011;8445;51.270;9.434;2022-08-01T06:09:14;3.05;;;2.47;;
16662;SDS011;8445;51.270;9.434;2022-08-01T06:11:40;2.72;;;2.40;;
16662;SDS011;8445;51.270;9.434;2022-08-01T06:14:06;5.45;;;3.47;;
16662;SDS011;8445;51.270;9.434;2022-08-01T06:16:32;4.68;;;2.83;;
16662;SDS011;8445;51.270;9.434;2022-08-01T06:18:58;2.90;;;2.67;;
16662;SDS011;8445;51.270;9.434;2022-08-01T06:21:25;7.80;;;3.10;;
16662;SDS011;8445;51.270;9.434;2022-08-01T06:23:51;4.60;;;3.67;;
16662;SDS011;8445;51.270;9.434;2022-08-01T06:26:17;3.40;;;3.10;;
16662;SDS011;8445;51.270;9.434;2022-08-01T06:28:44;5.82;;;3.55;;
16662;SDS011;8445;51.270;9.434;2022-08-01T06:31:11;5.53;;;3.30;;
16662;SDS011;8445;51.270;9.434;2022-08-01T06:33:38;3.25;;;2.95;;
16662;SDS011;8445;51.270;9.434;2022-08-01T06:36:04;4.03;;;3.35;;
16662;SDS011;8445;51.270;9.434;2022-08-01T06:38:30;4.50;;;3.30;;
16662;SDS011;8445;51.270;9.434;2022-08-01T06:40:56;3.78;;;3.47;;
16662;SDS011;8445;51.270;9.434;2022-08-01T06:43:22;5.13;;;2.97;;
16662;SDS011;8445;51.270;9.434;2022-08-01T06:45:48;4.70;;;2.95;;
16662;SDS011;8445;51.270;9.434;2022-08-01T06:48:14;3.50;;;3.20;;
16662;SDS011;8445;51.270;9.434;2022-08-01T06:50:40;3.63;;;2.40;;
16662;SDS011;8445;51.270;9.434;2022-08-01T06:53:06;4.53;;;2.70;;
16662;SDS011;8445;51.270;9.434;2022-08-01T06:55:32;3.30;;;2.53;;
16662;SDS011;8445;51.270;9.434;2022-08-01T06:57:58;3.10;;;2.65;;
16662;SDS011;8445;51.270;9.434;2022-08-01T07:00:24;4.15;;;2.60;;
16662;SDS011;8445;51.270;9.434;2022-08-01T07:02:55;3.70;;;2.50;;
16662;SDS011;8445;51.270;9.434;2022-08-01T07:05:25;2.53;;;2.33;;
16662;SDS011;8445;51.270;9.434;2022-08-01T07:07:52;2.92;;;1.95;;
16662;SDS011;8445;51.270;9.434;2022-08-01T07:10:18;3.75;;;1.90;;
16662;SDS011;8445;51.270;9.434;2022-08-01T07:12:44;3.28;;;2.70;;
16662;SDS011;8445;51.270;9.434;2022-08-01T07:15:10;2.40;;;1.92;;
16662;SDS011;8445;51.270;9.434;2022-08-01T07:17:41;2.03;;;1.92;;
16662;SDS011;8445;51.270;9.434;2022-08-01T07:20:09;1.35;;;1.30;;
16662;SDS011;8445;51.270;9.434;2022-08-01T07:22:37;1.70;;;1.60;;
16662;SDS011;8445;51.270;9.434;2022-08-01T07:25:04;3.08;;;1.80;;
16662;SDS011;8445;51.270;9.434;2022-08-01T07:27:31;1.95;;;1.85;;
16662;SDS011;8445;51.270;9.434;2022-08-01T07:29:57;3.03;;;1.60;;
16662;SDS011;8445;51.270;9.434;2022-08-01T07:32:23;2.83;;;1.60;;
16662;SDS011;8445;51.270;9.434;2022-08-01T07:34:49;1.83;;;1.60;;
16662;SDS011;8445;51.270;9.434;2022-08-01T07:37:15;1.38;;;1.38;;
16662;SDS011;8445;51.270;9.434;2022-08-01T07:39:41;1.52;;;1.42;;
16662;SDS011;8445;51.270;9.434;2022-08-01T07:42:07;1.33;;;1.23;;
16662;SDS011;8445;51.270;9.434;2022-08-01T07:44:33;1.83;;;1.73;;
16662;SDS011;8445;51.270;9.434;2022-08-01T07:47:01;2.90;;;1.60;;
16662;SDS011;8445;51.270;9.434;2022-08-01T07:49:27;1.50;;;1.40;;
16662;SDS011;8445;51.270;9.434;2022-08-01T07:51:53;2.67;;;1.90;;
16662;SDS011;8445;51.270;9.434;2022-08-01T07:54:19;2.22;;;1.38;;
16662;SDS011;8445;51.270;9.434;2022-08-01T07:56:45;3.38;;;1.70;;
16662;SDS011;8445;51.270;9.434;2022-08-01T07:59:14;2.63;;;1.45;;
16662;SDS011;8445;51.270;9.434;2022-08-01T08:01:40;1.98;;;1.77;;
16662;SDS011;8445;51.270;9.434;2022-08-01T08:04:06;4.72;;;4.32;;
16662;SDS011;8445;51.270;9.434;2022-08-01T08:06:32;3.17;;;2.50;;
16662;SDS011;8445;51.270;9.434;2022-08-01T08:08:58;2.20;;;2.00;;
16662;SDS011;8445;51.270;9.434;2022-08-01T08:11:27;2.20;;;2.00;;
16662;SDS011;8445;51.270;9.434;2022-08-01T08:13:53;4.10;;;2.00;;
16662;SDS011;8445;51.270;9.434;2022-08-01T08:16:19;2.45;;;2.15;;
16662;SDS011;8445;51.270;9.434;2022-08-01T08:18:45;2.58;;;1.90;;
16662;SDS011;8445;51.270;9.434;2022-08-01T08:21:11;1.90;;;1.80;;
16662;SDS011;8445;51.270;9.434;2022-08-01T08:23:42;2.67;;;2.08;;
16662;SDS011;8445;51.270;9.434;2022-08-01T08:26:47;1.90;;;1.80;;
16662;SDS011;8445;51.270;9.434;2022-08-01T08:29:16;2.45;;;1.90;;
16662;SDS011;8445;51.270;9.434;2022-08-01T08:31:42;5.32;;;2.38;;
16662;SDS011;8445;51.270;9.434;2022-08-01T08:34:08;2.40;;;2.20;;
16662;SDS011;8445;51.270;9.434;2022-08-01T08:36:34;2.55;;;1.70;;
16662;SDS011;8445;51.270;9.434;2022-08-01T08:39:00;2.58;;;2.20;;
16662;SDS011;8445;51.270;9.434;2022-08-01T08:41:28;3.05;;;1.90;;
16662;SDS011;8445;51.270;9.434;2022-08-01T08:44:00;1.92;;;1.73;;
16662;SDS011;8445;51.270;9.434;2022-08-01T08:46:28;2.67;;;2.00;;
16662;SDS011;8445;51.270;9.434;2022-08-01T08:48:57;1.50;;;1.40;;
16662;SDS011;8445;51.270;9.434;2022-08-01T08:51:25;1.90;;;1.80;;
16662;SDS011;8445;51.270;9.434;2022-08-01T08:53:56;1.70;;;1.60;;
16662;SDS011;8445;51.270;9.434;2022-08-01T08:56:26;3.10;;;2.03;;
16662;SDS011;8445;51.270;9.434;2022-08-01T08:58:55;3.75;;;1.70;;
16662;SDS011;8445;51.270;9.434;2022-08-01T09:01:22;3.00;;;1.70;;
16662;SDS011;8445;51.270;9.434;2022-08-01T09:03:48;3.10;;;1.60;;
16662;SDS011;8445;51.270;9.434;2022-08-01T09:06:14;2.85;;;2.08;;
16662;SDS011;8445;51.270;9.434;2022-08-01T09:08:40;2.95;;;2.75;;
16662;SDS011;8445;51.270;9.434;2022-08-01T09:11:09;2.17;;;1.63;;
16662;SDS011;8445;51.270;9.434;2022-08-01T09:13:36;2.38;;;1.85;;
16662;SDS011;8445;51.270;9.434;2022-08-01T09:16:02;1.83;;;1.67;;
16662;SDS011;8445;51.270;9.434;2022-08-01T09:18:34;2.05;;;1.55;;
16662;SDS011;8445;51.270;9.434;2022-08-01T09:23:32;1.80;;;1.50;;
16662;SDS011;8445;51.270;9.434;2022-08-01T09:26:29;1.77;;;1.67;;
16662;SDS011;8445;51.270;9.434;2022-08-01T09:29:04;2.25;;;1.63;;
16662;SDS011;8445;51.270;9.434;2022-08-01T09:31:45;2.10;;;1.48;;
16662;SDS011;8445;51.270;9.434;2022-08-01T09:34:23;2.72;;;1.75;;
16662;SDS011;8445;51.270;9.434;2022-08-01T09:36:58;2.30;;;2.10;;
16662;SDS011;8445;51.270;9.434;2022-08-01T09:39:27;1.67;;;1.58;;
16662;SDS011;8445;51.270;9.434;2022-08-01T09:41:56;1.77;;;1.67;;
16662;SDS011;8445;51.270;9.434;2022-08-01T09:44:41;1.70;;;1.60;;
16662;SDS011;8445;51.270;9.434;2022-08-01T09:47:12;2.75;;;1.70;;
16662;SDS011;8445;51.270;9.434;2022-08-01T09:49:39;2.10;;;1.40;;
16662;SDS011;8445;51.270;9.434;2022-08-01T09:52:13;1.48;;;1.38;;
16662;SDS011;8445;51.270;9.434;2022-08-01T09:54:44;1.70;;;1.60;;
16662;SDS011;8445;51.270;9.434;2022-08-01T09:57:20;2.58;;;1.80;;
16662;SDS011;8445;51.270;9.434;2022-08-01T09:59:47;1.55;;;1.48;;
16662;SDS011;8445;51.270;9.434;2022-08-01T10:05:11;2.70;;;1.80;;
16662;SDS011;8445;51.270;9.434;2022-08-01T10:07:55;4.90;;;1.80;;
16662;SDS011;8445;51.270;9.434;2022-08-01T10:10:27;3.80;;;1.95;;
16662;SDS011;8445;51.270;9.434;2022-08-01T10:12:53;4.30;;;2.03;;
16662;SDS011;8445;51.270;9.434;2022-08-01T10:15:25;1.98;;;1.88;;
16662;SDS011;8445;51.270;9.434;2022-08-01T10:17:56;3.03;;;2.70;;
16662;SDS011;8445;51.270;9.434;2022-08-01T10:20:26;2.55;;;2.35;;
16662;SDS011;8445;51.270;9.434;2022-08-01T10:23:03;2.90;;;2.30;;
16662;SDS011;8445;51.270;9.434;2022-08-01T10:25:36;2.05;;;1.95;;
16662;SDS011;8445;51.270;9.434;2022-08-01T10:28:15;5.20;;;2.13;;
16662;SDS011;8445;51.270;9.434;2022-08-01T10:30:48;1.70;;;1.60;;
16662;SDS011;8445;51.270;9.434;2022-08-01T10:33:14;1.90;;;1.80;;
16662;SDS011;8445;51.270;9.434;2022-08-01T10:35:41;1.55;;;1.45;;
16662;SDS011;8445;51.270;9.434;2022-08-01T10:38:10;1.70;;;1.60;;
16662;SDS011;8445;51.270;9.434;2022-08-01T10:40:36;2.75;;;1.80;;
16662;SDS011;8445;51.270;9.434;2022-08-01T10:43:04;1.23;;;1.13;;
16662;SDS011;8445;51.270;9.434;2022-08-01T10:45:30;1.45;;;1.35;;
16662;SDS011;8445;51.270;9.434;2022-08-01T10:48:03;1.20;;;1.20;;
16662;SDS011;8445;51.270;9.434;2022-08-01T10:50:37;1.00;;;1.00;;
16662;SDS011;8445;51.270;9.434;2022-08-01T10:53:15;1.40;;;1.30;;
16662;SDS011;8445;51.270;9.434;2022-08-01T10:55:49;1.40;;;1.30;;
16662;SDS011;8445;51.270;9.434;2022-08-01T10:58:24;1.40;;;1.30;;
16662;SDS011;8445;51.270;9.434;2022-08-01T11:06:28;1.35;;;0.63;;
16662;SDS011;8445;51.270;9.434;2022-08-01T11:12:38;0.60;;;0.60;;
16662;SDS011;8445;51.270;9.434;2022-08-01T11:17:33;1.63;;;0.68;;
16662;SDS011;8445;51.270;9.434;2022-08-01T11:20:19;4.68;;;0.80;;
16662;SDS011;8445;51.270;9.434;2022-08-01T11:25:26;1.60;;;0.77;;
16662;SDS011;8445;51.270;9.434;2022-08-01T11:30:39;0.70;;;0.70;;
16662;SDS011;8445;51.270;9.434;2022-08-01T11:33:10;1.88;;;0.73;;
16662;SDS011;8445;51.270;9.434;2022-08-01T11:36:16;0.88;;;0.88;;
16662;SDS011;8445;51.270;9.434;2022-08-01T11:38:36;0.80;;;0.80;;
16662;SDS011;8445;51.270;9.434;2022-08-01T11:41:11;0.95;;;0.95;;
16662;SDS011;8445;51.270;9.434;2022-08-01T11:46:49;0.68;;;0.68;;
16662;SDS011;8445;51.270;9.434;2022-08-01T11:54:37;0.60;;;0.50;;
16662;SDS011;8445;51.270;9.434;2022-08-01T11:59:55;0.55;;;0.55;;
16662;SDS011;8445;51.270;9.434;2022-08-01T12:02:26;0.60;;;0.60;;
16662;SDS011;8445;51.270;9.434;2022-08-01T12:04:59;0.55;;;0.40;;
16662;SDS011;8445;51.270;9.434;2022-08-01T12:07:37;0.75;;;0.50;;
16662;SDS011;8445;51.270;9.434;2022-08-01T12:10:07;1.33;;;0.40;;
16662;SDS011;8445;51.270;9.434;2022-08-01T12:12:35;0.20;;;0.20;;
16662;SDS011;8445;51.270;9.434;2022-08-01T12:15:09;1.25;;;0.60;;
16662;SDS011;8445;51.270;9.434;2022-08-01T12:17:39;0.60;;;0.60;;
16662;SDS011;8445;51.270;9.434;2022-08-01T12:20:08;0.40;;;0.40;;
16662;SDS011;8445;51.270;9.434;2022-08-01T12:22:37;0.43;;;0.43;;
16662;SDS011;8445;51.270;9.434;2022-08-01T12:27:41;0.40;;;0.40;;
16662;SDS011;8445;51.270;9.434;2022-08-01T12:30:10;0.30;;;0.30;;
16662;SDS011;8445;51.270;9.434;2022-08-01T12:32:43;0.68;;;0.50;;
16662;SDS011;8445;51.270;9.434;2022-08-01T12:35:18;1.13;;;0.45;;
16662;SDS011;8445;51.270;9.434;2022-08-01T12:37:53;0.57;;;0.40;;
16662;SDS011;8445;51.270;9.434;2022-08-01T12:40:26;0.45;;;0.45;;
16662;SDS011;8445;51.270;9.434;2022-08-01T12:43:05;0.80;;;0.80;;
16662;SDS011;8445;51.270;9.434;2022-08-01T12:45:38;2.75;;;1.10;;
16662;SDS011;8445;51.270;9.434;2022-08-01T12:48:09;0.85;;;0.85;;
16662;SDS011;8445;51.270;9.434;2022-08-01T12:50:39;0.85;;;0.85;;
16662;SDS011;8445;51.270;9.434;2022-08-01T12:53:10;1.13;;;1.00;;
16662;SDS011;8445;51.270;9.434;2022-08-01T12:55:46;1.33;;;1.23;;
16662;SDS011;8445;51.270;9.434;2022-08-01T12:58:19;1.50;;;1.40;;
16662;SDS011;8445;51.270;9.434;2022-08-01T13:00:47;2.17;;;1.27;;
16662;SDS011;8445;51.270;9.434;2022-08-01T13:05:55;1.67;;;1.58;;
16662;SDS011;8445;51.270;9.434;2022-08-01T13:08:25;1.35;;;1.20;;
16662;SDS011;8445;51.270;9.434;2022-08-01T13:11:03;1.40;;;1.30;;
16662;SDS011;8445;51.270;9.434;2022-08-01T13:13:40;1.40;;;1.30;;
16662;SDS011;8445;51.270;9.434;2022-08-01T13:16:21;1.50;;;1.40;;
16662;SDS011;8445;51.270;9.434;2022-08-01T13:18:54;1.45;;;1.33;;
16662;SDS011;8445;51.270;9.434;2022-08-01T13:21:22;1.50;;;1.40;;
16662;SDS011;8445;51.270;9.434;2022-08-01T13:24:04;3.75;;;1.52;;
16662;SDS011;8445;51.270;9.434;2022-08-01T13:29:31;4.10;;;1.35;;
16662;SDS011;8445;51.270;9.434;2022-08-01T13:32:12;1.50;;;1.40;;
16662;SDS011;8445;51.270;9.434;2022-08-01T13:34:44;1.40;;;1.30;;
16662;SDS011;8445;51.270;9.434;2022-08-01T13:37:10;1.40;;;1.30;;
16662;SDS011;8445;51.270;9.434;2022-08-01T13:39:36;1.95;;;1.75;;
16662;SDS011;8445;51.270;9.434;2022-08-01T13:42:13;1.63;;;1.52;;
16662;SDS011;8445;51.270;9.434;2022-08-01T13:44:41;2.22;;;1.48;;
16662;SDS011;8445;51.270;9.434;2022-08-01T13:47:11;3.45;;;1.80;;
16662;SDS011;8445;51.270;9.434;2022-08-01T13:49:37;2.70;;;1.60;;
16662;SDS011;8445;51.270;9.434;2022-08-01T13:52:03;1.55;;;1.45;;
16662;SDS011;8445;51.270;9.434;2022-08-01T13:54:31;1.63;;;1.52;;
16662;SDS011;8445;51.270;9.434;2022-08-01T13:56:58;1.85;;;1.70;;
16662;SDS011;8445;51.270;9.434;2022-08-01T13:59:24;3.58;;;1.80;;
16662;SDS011;8445;51.270;9.434;2022-08-01T14:01:50;3.25;;;1.98;;
16662;SDS011;8445;51.270;9.434;2022-08-01T14:04:16;1.90;;;1.80;;
16662;SDS011;8445;51.270;9.434;2022-08-01T14:06:42;1.70;;;1.55;;
16662;SDS011;8445;51.270;9.434;2022-08-01T14:09:08;1.67;;;1.58;;
16662;SDS011;8445;51.270;9.434;2022-08-01T14:11:34;1.67;;;1.55;;
16662;SDS011;8445;51.270;9.434;2022-08-01T14:14:00;1.33;;;1.20;;
16662;SDS011;8445;51.270;9.434;2022-08-01T14:16:26;1.60;;;1.50;;
16662;SDS011;8445;51.270;9.434;2022-08-01T14:18:52;2.38;;;1.70;;
16662;SDS011;8445;51.270;9.434;2022-08-01T14:21:18;1.85;;;1.40;;
16662;SDS011;8445;51.270;9.434;2022-08-01T14:23:44;1.25;;;1.17;;
16662;SDS011;8445;51.270;9.434;2022-08-01T14:26:11;1.20;;;1.20;;
16662;SDS011;8445;51.270;9.434;2022-08-01T14:28:37;1.55;;;1.20;;
16662;SDS011;8445;51.270;9.434;2022-08-01T14:31:04;4.70;;;1.20;;
16662;SDS011;8445;51.270;9.434;2022-08-01T14:33:34;1.20;;;1.20;;
16662;SDS011;8445;51.270;9.434;2022-08-01T14:36:00;1.13;;;1.13;;
16662;SDS011;8445;51.270;9.434;2022-08-01T14:38:26;1.65;;;0.90;;
16662;SDS011;8445;51.270;9.434;2022-08-01T14:40:52;0.95;;;0.95;;
16662;SDS011;8445;51.270;9.434;2022-08-01T14:43:18;0.98;;;0.98;;
16662;SDS011;8445;51.270;9.434;2022-08-01T14:45:45;0.90;;;0.90;;
16662;SDS011;8445;51.270;9.434;2022-08-01T14:48:18;1.08;;;1.00;;
16662;SDS011;8445;51.270;9.434;2022-08-01T14:50:43;1.52;;;0.98;;
16662;SDS011;8445;51.270;9.434;2022-08-01T14:53:09;0.90;;;0.90;;
16662;SDS011;8445;51.270;9.434;2022-08-01T14:55:36;1.33;;;1.23;;
16662;SDS011;8445;51.270;9.434;2022-08-01T14:58:01;1.05;;;1.05;;
16662;SDS011;8445;51.270;9.434;2022-08-01T15:00:27;1.15;;;1.15;;
16662;SDS011;8445;51.270;9.434;2022-08-01T15:02:53;1.00;;;1.00;;
16662;SDS011;8445;51.270;9.434;2022-08-01T15:05:19;1.00;;;0.98;;
16662;SDS011;8445;51.270;9.434;2022-08-01T15:07:46;1.67;;;1.20;;
16662;SDS011;8445;51.270;9.434;2022-08-01T15:10:12;1.27;;;1.17;;
16662;SDS011;8445;51.270;9.434;2022-08-01T15:12:39;2.30;;;1.77;;
16662;SDS011;8445;51.270;9.434;2022-08-01T15:15:05;2.83;;;1.55;;
16662;SDS011;8445;51.270;9.434;2022-08-01T15:17:31;1.20;;;1.10;;
16662;SDS011;8445;51.270;9.434;2022-08-01T15:19:58;0.80;;;0.80;;
16662;SDS011;8445;51.270;9.434;2022-08-01T15:22:29;1.10;;;1.10;;
16662;SDS011;8445;51.270;9.434;2022-08-01T15:24:57;1.00;;;1.00;;
16662;SDS011;8445;51.270;9.434;2022-08-01T15:27:25;1.60;;;0.98;;
16662;SDS011;8445;51.270;9.434;2022-08-01T15:29:52;1.45;;;0.82;;
16662;SDS011;8445;51.270;9.434;2022-08-01T15:32:20;2.47;;;1.00;;
16662;SDS011;8445;51.270;9.434;2022-08-01T15:34:47;0.68;;;0.68;;
16662;SDS011;8445;51.270;9.434;2022-08-01T15:37:13;1.13;;;1.10;;
16662;SDS011;8445;51.270;9.434;2022-08-01T15:39:39;0.95;;;0.95;;
16662;SDS011;8445;51.270;9.434;2022-08-01T15:42:07;2.13;;;1.00;;
16662;SDS011;8445;51.270;9.434;2022-08-01T15:44:39;2.40;;;0.80;;
16662;SDS011;8445;51.270;9.434;2022-08-01T15:47:06;0.82;;;0.82;;
16662;SDS011;8445;51.270;9.434;2022-08-01T15:49:33;0.57;;;0.57;;
16662;SDS011;8445;51.270;9.434;2022-08-01T15:52:01;1.33;;;0.68;;
16662;SDS011;8445;51.270;9.434;2022-08-01T15:54:28;2.28;;;1.00;;
16662;SDS011;8445;51.270;9.434;2022-08-01T15:56:54;0.60;;;0.60;;
16662;SDS011;8445;51.270;9.434;2022-08-01T15:59:20;0.57;;;0.57;;
16662;SDS011;8445;51.270;9.434;2022-08-01T16:01:46;0.68;;;0.68;;
16662;SDS011;8445;51.270;9.434;2022-08-01T16:04:14;0.50;;;0.50;;
16662;SDS011;8445;51.270;9.434;2022-08-01T16:06:41;0.80;;;0.73;;
16662;SDS011;8445;51.270;9.434;2022-08-01T16:09:07;0.52;;;0.52;;